createdAt,value
2023-02-06T00:03:20.765Z,101992.00
2023-02-06T00:07:22.328Z,101981.78
2023-02-06T00:11:24.294Z,101987.09
2023-02-06T00:15:25.861Z,101991.25
2023-02-06T00:19:27.408Z,101981.91
2023-02-06T00:23:28.995Z,101988.50
2023-02-06T00:27:30.577Z,101996.44
2023-02-06T00:31:33.750Z,101994.47
2023-02-06T00:35:35.592Z,102002.78
2023-02-06T00:39:37.532Z,102001.63
2023-02-06T00:43:39.163Z,102000.78
2023-02-06T00:47:40.737Z,102007.28
2023-02-06T00:51:44.287Z,102014.22
2023-02-06T00:55:45.834Z,102006.19
2023-02-06T00:59:47.395Z,102015.06
2023-02-06T01:03:48.987Z,102018.19
2023-02-06T01:07:51.101Z,102025.50
2023-02-06T01:11:53.042Z,102032.84
2023-02-06T01:15:59.215Z,102026.66
2023-02-06T01:20:01.137Z,102037.81
2023-02-06T01:24:03.747Z,102045.50
2023-02-06T01:28:05.377Z,102039.06
2023-02-06T01:32:06.968Z,102042.34
2023-02-06T01:36:08.637Z,102033.72
2023-02-06T01:40:15.052Z,102026.69
2023-02-06T01:44:22.546Z,102030.28
2023-02-06T01:48:33.364Z,102026.41
2023-02-06T01:52:35.158Z,102024.97
2023-02-06T01:56:41.745Z,102009.31
2023-02-06T02:00:44.314Z,102006.59
2023-02-06T02:04:46.175Z,102004.16
2023-02-06T02:13:58.871Z,102014.06
2023-02-06T02:18:13.016Z,102016.66
2023-02-06T02:22:32.658Z,102011.19
2023-02-06T02:26:56.657Z,102017.19
2023-02-06T02:31:14.892Z,102012.00
2023-02-06T02:35:40.839Z,102012.84
2023-02-06T02:40:03.281Z,102011.44
2023-02-06T02:44:11.321Z,101998.50
2023-02-06T02:48:25.339Z,102003.38
2023-02-06T02:52:26.927Z,102002.50
2023-02-06T02:56:31.178Z,102008.34
2023-02-06T03:00:37.241Z,102008.34
2023-02-06T03:04:44.919Z,102004.78
2023-02-06T03:09:03.026Z,102007.19
2023-02-06T03:13:22.739Z,102015.06
2023-02-06T03:17:34.857Z,102016.53
2023-02-06T03:21:38.734Z,102010.84
2023-02-06T03:25:44.197Z,102015.56
2023-02-06T03:29:49.049Z,102008.31
2023-02-06T03:33:58.033Z,102007.59
2023-02-06T03:37:59.888Z,102014.06
2023-02-06T03:42:03.302Z,102013.25
2023-02-06T03:46:06.445Z,102014.66
2023-02-06T03:50:10.779Z,102024.25
2023-02-06T03:54:16.430Z,102022.97
2023-02-06T03:58:18.133Z,102019.06
2023-02-06T04:02:22.118Z,102026.38
2023-02-06T04:06:23.942Z,102025.25
2023-02-06T04:10:26.503Z,102021.81
2023-02-06T04:14:28.119Z,102025.41
2023-02-06T04:18:29.753Z,102019.94
2023-02-06T04:22:31.437Z,102023.69
2023-02-06T04:26:32.982Z,102038.19
2023-02-06T04:30:34.631Z,102035.44
2023-02-06T04:34:37.064Z,102031.31
2023-02-06T04:38:38.666Z,102026.72
2023-02-06T04:42:40.182Z,102022.97
2023-02-06T04:46:43.349Z,102010.38
2023-02-06T04:50:44.880Z,102007.63
2023-02-06T04:54:46.413Z,102004.19
2023-02-06T04:58:48.058Z,102014.09
2023-02-06T05:02:49.682Z,102011.81
2023-02-06T05:06:51.345Z,102027.19
2023-02-06T05:10:52.952Z,102027.88
2023-02-06T05:14:55.356Z,102033.03
2023-02-06T05:18:57.248Z,102031.88
2023-02-06T05:22:58.875Z,102030.16
2023-02-06T05:27:00.431Z,102032.16
2023-02-06T05:31:03.184Z,102031.03
2023-02-06T05:35:04.968Z,102024.41
2023-02-06T05:39:06.541Z,102028.28
2023-02-06T05:43:11.097Z,102023.28
2023-02-06T05:47:12.709Z,102024.16
2023-02-06T05:51:14.442Z,102011.53
2023-02-06T05:55:18.357Z,102001.97
2023-02-06T05:59:20.498Z,102010.78
2023-02-06T06:03:27.362Z,102010.38
2023-02-06T06:07:29.010Z,102011.66
2023-02-06T06:11:31.157Z,102011.94
2023-02-06T06:15:32.740Z,102007.66
2023-02-06T06:19:34.370Z,101992.97
2023-02-06T06:23:35.970Z,102008.16
2023-02-06T06:27:37.538Z,102005.88
2023-02-06T06:31:39.107Z,102006.28
2023-02-06T06:35:40.763Z,102010.84
2023-02-06T06:39:42.523Z,102014.84
2023-02-06T06:43:44.123Z,102016.28
2023-02-06T06:47:45.724Z,102024.28
2023-02-06T06:51:47.301Z,102032.72
2023-02-06T06:55:48.952Z,102036.31
2023-02-06T06:59:50.827Z,102030.31
2023-02-06T07:03:52.373Z,102033.56
2023-02-06T07:07:54.005Z,102038.16
2023-02-06T07:11:55.561Z,102033.66
2023-02-06T07:15:57.139Z,102043.69
2023-02-06T07:19:59.438Z,102047.09
2023-02-06T07:24:04.625Z,102046.78
2023-02-06T07:28:06.333Z,102050.09
2023-02-06T07:32:08.063Z,102055.25
2023-02-06T07:36:11.819Z,102048.22
2023-02-06T07:40:13.487Z,102042.03
2023-02-06T07:44:15.770Z,102042.50
2023-02-06T07:48:17.408Z,102039.63
2023-02-06T07:52:20.286Z,102033.91
2023-02-06T07:56:23.624Z,102033.41
2023-02-06T08:00:26.819Z,102029.81
2023-02-06T08:04:35.140Z,102028.34
2023-02-06T08:08:37.043Z,102029.22
2023-02-06T08:12:38.607Z,102033.50
2023-02-06T08:16:40.377Z,102039.75
2023-02-06T08:20:42.647Z,102045.88
2023-02-06T08:24:44.404Z,102035.78
2023-02-06T08:28:47.806Z,102022.16
2023-02-06T08:32:49.470Z,102022.72
2023-02-06T08:36:51.027Z,102024.03
2023-02-06T08:40:52.539Z,102025.84
2023-02-06T08:44:54.361Z,102026.28
2023-02-06T08:48:57.683Z,102019.06
2023-02-06T08:53:00.115Z,102021.72
2023-02-06T08:57:02.641Z,102012.06
2023-02-06T09:01:08.822Z,102009.53
2023-02-06T09:05:10.459Z,102020.59
2023-02-06T09:09:12.803Z,102022.25
2023-02-06T09:13:14.444Z,102020.69
2023-02-06T09:17:16.639Z,102023.56
2023-02-06T09:21:21.114Z,102032.78
2023-02-06T09:25:22.712Z,102034.97
2023-02-06T09:29:24.552Z,102039.88
2023-02-06T09:33:26.182Z,102036.66
2023-02-06T09:37:27.805Z,102039.63
2023-02-06T09:41:41.632Z,102031.44
2023-02-06T09:45:43.176Z,102024.00
2023-02-06T09:49:49.082Z,102023.91
2023-02-06T09:54:14.616Z,102016.22
2023-02-06T09:58:51.074Z,102000.16
2023-02-06T10:02:58.191Z,101990.78
2023-02-06T10:07:20.692Z,101983.09
2023-02-06T10:11:29.604Z,101983.81
2023-02-06T10:15:36.126Z,101981.22
2023-02-06T10:19:56.742Z,101975.06
2023-02-06T10:24:08.549Z,101976.78
2023-02-06T10:28:24.499Z,101973.56
2023-02-06T10:32:44.736Z,101975.75
2023-02-06T10:37:15.440Z,101968.19
2023-02-06T10:41:39.845Z,101967.34
2023-02-06T10:46:00.353Z,101965.03
2023-02-06T10:50:37.493Z,101963.28
2023-02-06T10:54:47.236Z,101957.41
2023-02-06T10:58:54.586Z,101948.19
2023-02-06T11:03:07.411Z,101931.06
2023-02-06T11:07:17.600Z,101934.34
2023-02-06T11:11:24.579Z,101919.75
2023-02-06T11:15:44.592Z,101920.03
2023-02-06T11:19:50.910Z,101918.97
2023-02-06T11:24:09.461Z,101912.84
2023-02-06T11:28:14.960Z,101911.22
2023-02-06T11:32:25.780Z,101898.41
2023-02-06T11:36:31.686Z,101888.78
2023-02-06T11:40:33.417Z,101886.16
2023-02-06T11:44:38.573Z,101883.66
2023-02-06T11:48:46.530Z,101883.66
2023-02-06T11:52:48.774Z,101887.50
2023-02-06T11:57:20.133Z,101890.72
2023-02-06T12:01:22.693Z,101883.91
2023-02-06T12:05:28.130Z,101872.34
2023-02-06T12:09:30.120Z,101880.75
2023-02-06T12:13:41.994Z,101872.22
2023-02-06T12:17:55.571Z,101874.56
2023-02-06T12:22:12.851Z,101857.66
2023-02-06T12:26:18.591Z,101838.91
2023-02-06T12:30:35.775Z,101858.84
2023-02-06T12:34:44.691Z,101848.31
2023-02-06T12:38:57.495Z,101859.41
2023-02-06T12:43:13.751Z,101859.19
2023-02-06T12:47:35.233Z,101848.28
2023-02-06T12:51:41.359Z,101834.06
2023-02-06T12:56:01.706Z,101818.34
2023-02-06T13:00:12.833Z,101817.81
2023-02-06T13:04:23.662Z,101821.09
2023-02-06T13:08:48.681Z,101814.88
2023-02-06T13:12:56.101Z,101821.22
2023-02-06T13:17:16.777Z,101807.72
2023-02-06T13:21:26.513Z,101815.78
2023-02-06T13:25:46.517Z,101820.88
2023-02-06T13:29:54.087Z,101829.75
2023-02-06T13:34:06.180Z,101811.25
2023-02-06T13:38:58.692Z,101818.44
2023-02-06T13:43:26.902Z,101824.97
2023-02-06T13:47:53.150Z,101825.44
2023-02-06T13:52:38.170Z,101827.28
2023-02-06T13:57:29.592Z,101824.19
2023-02-06T14:01:49.299Z,101814.69
2023-02-06T14:06:29.197Z,101824.69
2023-02-06T14:11:27.098Z,101821.66
2023-02-06T14:15:52.082Z,101812.81
2023-02-06T14:19:58.471Z,101808.97
2023-02-06T14:24:07.505Z,101813.38
2023-02-06T14:28:27.236Z,101800.81
2023-02-06T14:32:28.922Z,101800.50
2023-02-06T14:37:00.263Z,101805.81
2023-02-06T14:41:04.123Z,101796.41
2023-02-06T14:45:28.472Z,101794.50
2023-02-06T14:49:35.098Z,101795.00
2023-02-06T14:53:39.349Z,101790.84
2023-02-06T14:57:44.959Z,101794.78
2023-02-06T15:01:50.103Z,101788.44
2023-02-06T15:06:01.884Z,101782.91
2023-02-06T15:10:14.075Z,101776.28
2023-02-06T15:14:25.898Z,101770.22
2023-02-06T15:18:27.458Z,101765.41
2023-02-06T15:22:30.765Z,101763.28
2023-02-06T15:26:46.150Z,101771.91
2023-02-06T15:30:54.167Z,101774.69
2023-02-06T15:34:56.481Z,101764.84
2023-02-06T15:39:05.470Z,101766.03
2023-02-06T15:43:22.145Z,101761.38
2023-02-06T15:47:25.079Z,101764.53
2023-02-06T15:51:28.177Z,101767.59
2023-02-06T15:55:36.790Z,101782.00
2023-02-06T15:59:40.735Z,101782.28
2023-02-06T16:03:42.626Z,101768.22
2023-02-06T16:07:48.265Z,101763.78
2023-02-06T16:11:53.150Z,101776.19
2023-02-06T16:16:16.829Z,101789.53
2023-02-06T16:20:40.989Z,101786.69
2023-02-06T16:24:43.026Z,101797.44
2023-02-06T16:29:05.035Z,101797.44
2023-02-06T16:33:25.581Z,101808.56
2023-02-06T16:37:30.167Z,101802.59
2023-02-06T16:41:34.709Z,101805.28
2023-02-06T16:45:36.642Z,101816.91
2023-02-06T16:49:38.446Z,101797.91
2023-02-06T16:53:39.992Z,101803.00
2023-02-06T16:57:44.938Z,101812.34
2023-02-06T17:01:47.440Z,101814.47
2023-02-06T17:05:50.296Z,101823.28
2023-02-06T17:09:54.480Z,101826.47
2023-02-06T17:13:56.369Z,101834.94
2023-02-06T17:17:58.372Z,101831.47
2023-02-06T17:22:01.383Z,101837.50
2023-02-06T17:26:03.552Z,101845.38
2023-02-06T17:30:05.510Z,101854.94
2023-02-06T17:34:07.169Z,101838.09
2023-02-06T17:38:09.966Z,101837.38
2023-02-06T17:42:11.540Z,101845.09
2023-02-06T17:46:13.226Z,101831.59
2023-02-06T17:50:20.696Z,101835.13
2023-02-06T17:54:22.627Z,101828.28
2023-02-06T17:58:24.258Z,101818.06
2023-02-06T18:02:25.849Z,101810.22
2023-02-06T18:06:32.333Z,101820.75
2023-02-06T18:10:33.963Z,101813.03
2023-02-06T18:14:35.880Z,101819.03
2023-02-06T18:18:37.453Z,101819.34
2023-02-06T18:22:42.196Z,101819.28
2023-02-06T18:26:43.743Z,101813.00
2023-02-06T18:30:45.564Z,101817.06
2023-02-06T18:34:48.073Z,101826.41
2023-02-06T18:38:50.080Z,101815.47
2023-02-06T18:42:51.788Z,101814.47
2023-02-06T18:46:53.654Z,101809.28
2023-02-06T18:50:57.510Z,101810.38
2023-02-06T18:55:00.044Z,101808.59
2023-02-06T18:59:01.669Z,101804.91
2023-02-06T19:03:04.527Z,101805.69
2023-02-06T19:07:06.253Z,101812.72
2023-02-06T19:11:08.610Z,101820.19
2023-02-06T19:15:11.209Z,101817.59
2023-02-06T19:19:13.237Z,101817.50
2023-02-06T19:23:14.977Z,101824.66
2023-02-06T19:27:16.685Z,101839.66
2023-02-06T19:31:24.007Z,101847.38
2023-02-06T19:35:25.652Z,101849.81
2023-02-06T19:39:27.430Z,101851.69
2023-02-06T19:43:29.009Z,101862.97
2023-02-06T19:47:30.598Z,101881.41
2023-02-06T19:51:35.891Z,101883.56
2023-02-06T19:55:37.639Z,101879.97
2023-02-06T19:59:39.289Z,101887.25
2023-02-06T20:03:41.499Z,101889.53
2023-02-06T20:07:43.181Z,101909.97
2023-02-06T20:11:44.898Z,101901.09
2023-02-06T20:15:46.549Z,101907.66
2023-02-06T20:19:48.140Z,101919.94
2023-02-06T20:23:50.036Z,101923.94
2023-02-06T20:27:53.826Z,101921.78
2023-02-06T20:31:58.683Z,101909.97
2023-02-06T20:36:05.323Z,101914.88
2023-02-06T20:40:07.162Z,101905.03
2023-02-06T20:44:11.622Z,101905.47
2023-02-06T20:48:13.198Z,101894.72
2023-02-06T20:52:14.890Z,101886.66
2023-02-06T20:56:17.225Z,101891.34
2023-02-06T21:00:18.965Z,101916.78
2023-02-06T21:04:20.670Z,101913.03
2023-02-06T21:08:22.673Z,101911.25
2023-02-06T21:12:24.233Z,101913.78
2023-02-06T21:16:31.050Z,101913.38
2023-02-06T21:20:32.661Z,101903.22
2023-02-06T21:24:34.241Z,101896.66
2023-02-06T21:28:37.121Z,101891.22
2023-02-06T21:32:38.748Z,101890.09
2023-02-06T21:36:41.153Z,101877.53
2023-02-06T21:40:42.949Z,101877.91
2023-02-06T21:44:44.533Z,101888.00
2023-02-06T21:48:51.161Z,101896.09
2023-02-06T21:52:52.749Z,101891.34
2023-02-06T21:56:54.403Z,101888.19
2023-02-06T22:00:56.652Z,101889.63
2023-02-06T22:04:59.737Z,101887.53
2023-02-06T22:09:07.447Z,101907.66
2023-02-06T22:13:09.260Z,101896.13
2023-02-06T22:17:10.854Z,101883.66
2023-02-06T22:21:15.201Z,101880.09
2023-02-06T22:25:16.988Z,101869.41
2023-02-06T22:29:18.738Z,101869.56
2023-02-06T22:33:20.299Z,101863.00
2023-02-06T22:37:22.170Z,101874.13
2023-02-06T22:41:24.070Z,101874.72
2023-02-06T22:45:25.684Z,101882.16
2023-02-06T22:49:27.341Z,101877.00
2023-02-06T22:53:35.097Z,101874.59
2023-02-06T22:57:37.285Z,101867.41
2023-02-06T23:01:42.054Z,101876.84
2023-02-06T23:05:43.655Z,101872.16
2023-02-06T23:09:45.220Z,101884.13
2023-02-06T23:13:46.751Z,101884.56
2023-02-06T23:17:49.651Z,101887.69
2023-02-06T23:21:51.685Z,101902.78
2023-02-06T23:25:53.640Z,101901.03
2023-02-06T23:29:55.168Z,101903.56
2023-02-06T23:33:56.731Z,101893.00
2023-02-06T23:37:58.276Z,101892.69
2023-02-06T23:41:59.824Z,101914.41
2023-02-06T23:46:01.660Z,101907.38
2023-02-06T23:50:04.780Z,101897.66
2023-02-06T23:54:07.593Z,101894.47
2023-02-06T23:58:09.065Z,101893.16
